sensor_id;sensor_type;location;lat;lon;timestamp;pressure;altitude;pressure_sealevel;temperature
45034;BMP280;30771;47.988;-4.186;2022-09-09T06:01:31;100185.66;;;15.19
45034;BMP280;30771;47.988;-4.186;2022-09-09T06:03:57;100183.63;;;15.26
45034;BMP280;30771;47.988;-4.186;2022-09-09T06:06:23;100190.66;;;15.32
45034;BMP280;30771;47.988;-4.186;2022-09-09T06:08:50;100187.28;;;15.37
45034;BMP280;30771;47.988;-4.186;2022-09-09T06:11:17;100204.09;;;15.42
45034;BMP280;30771;47.988;-4.186;2022-09-09T06:13:43;100201.50;;;15.47
45034;BMP280;30771;47.988;-4.186;2022-09-09T06:16:09;100192.34;;;15.55
45034;BMP280;30771;47.988;-4.186;2022-09-09T06:18:34;100198.78;;;15.59
45034;BMP280;30771;47.988;-4.186;2022-09-09T06:21:00;100200.47;;;15.65
45034;BMP280;30771;47.988;-4.186;2022-09-09T06:23:27;100197.69;;;15.72
45034;BMP280;30771;47.988;-4.186;2022-09-09T06:26:00;100203.06;;;15.77
45034;BMP280;30771;47.988;-4.186;2022-09-09T06:28:25;100204.75;;;15.83
45034;BMP280;30771;47.988;-4.186;2022-09-09T06:30:56;100207.22;;;15.89
45034;BMP280;30771;47.988;-4.186;2022-09-09T06:33:21;100214.78;;;15.97
45034;BMP280;30771;47.988;-4.186;2022-09-09T06:35:53;100216.97;;;16.00
45034;BMP280;30771;47.988;-4.186;2022-09-09T06:38:18;100215.41;;;16.04
45034;BMP280;30771;47.988;-4.186;2022-09-09T06:40:50;100224.53;;;16.08
45034;BMP280;30771;47.988;-4.186;2022-09-09T06:43:15;100226.44;;;16.13
45034;BMP280;30771;47.988;-4.186;2022-09-09T06:45:40;100230.03;;;16.23
45034;BMP280;30771;47.988;-4.186;2022-09-09T06:48:05;100223.81;;;16.34
45034;BMP280;30771;47.988;-4.186;2022-09-09T06:50:31;100232.88;;;16.38
45034;BMP280;30771;47.988;-4.186;2022-09-09T06:52:56;100226.06;;;16.42
45034;BMP280;30771;47.988;-4.186;2022-09-09T06:55:21;100234.31;;;16.46
45034;BMP280;30771;47.988;-4.186;2022-09-09T06:57:46;100236.56;;;16.54
45034;BMP280;30771;47.988;-4.186;2022-09-09T07:00:11;100230.28;;;16.60
45034;BMP280;30771;47.988;-4.186;2022-09-09T07:02:37;100222.91;;;16.67
45034;BMP280;30771;47.988;-4.186;2022-09-09T07:05:02;100221.91;;;16.73
45034;BMP280;30771;47.988;-4.186;2022-09-09T07:07:27;100221.16;;;16.77
45034;BMP280;30771;47.988;-4.186;2022-09-09T07:09:52;100231.28;;;16.80
45034;BMP280;30771;47.988;-4.186;2022-09-09T07:12:17;100230.81;;;16.83
45034;BMP280;30771;47.988;-4.186;2022-09-09T07:14:42;100237.47;;;16.86
45034;BMP280;30771;47.988;-4.186;2022-09-09T07:17:08;100239.88;;;16.87
45034;BMP280;30771;47.988;-4.186;2022-09-09T07:19:33;100248.34;;;16.84
45034;BMP280;30771;47.988;-4.186;2022-09-09T07:21:58;100266.13;;;16.79
45034;BMP280;30771;47.988;-4.186;2022-09-09T07:24:23;100257.75;;;16.70
45034;BMP280;30771;47.988;-4.186;2022-09-09T07:26:48;100259.50;;;16.60
45034;BMP280;30771;47.988;-4.186;2022-09-09T07:29:13;100255.97;;;16.54
45034;BMP280;30771;47.988;-4.186;2022-09-09T07:31:39;100250.59;;;16.49
45034;BMP280;30771;47.988;-4.186;2022-09-09T07:34:04;100251.09;;;16.46
45034;BMP280;30771;47.988;-4.186;2022-09-09T07:36:31;100245.53;;;16.48
45034;BMP280;30771;47.988;-4.186;2022-09-09T07:38:57;100251.16;;;16.51
45034;BMP280;30771;47.988;-4.186;2022-09-09T07:43:51;100247.81;;;16.61
45034;BMP280;30771;47.988;-4.186;2022-09-09T07:46:18;100259.06;;;16.68
45034;BMP280;30771;47.988;-4.186;2022-09-09T07:48:46;100255.97;;;16.76
45034;BMP280;30771;47.988;-4.186;2022-09-09T07:51:13;100261.41;;;16.86
45034;BMP280;30771;47.988;-4.186;2022-09-09T07:53:39;100269.22;;;16.92
45034;BMP280;30771;47.988;-4.186;2022-09-09T07:56:08;100270.09;;;16.98
45034;BMP280;30771;47.988;-4.186;2022-09-09T07:58:33;100267.94;;;17.00
45034;BMP280;30771;47.988;-4.186;2022-09-09T08:00:58;100277.78;;;17.00
45034;BMP280;30771;47.988;-4.186;2022-09-09T08:03:24;100282.56;;;16.98
45034;BMP280;30771;47.988;-4.186;2022-09-09T08:05:49;100280.16;;;16.96
45034;BMP280;30771;47.988;-4.186;2022-09-09T08:08:14;100283.63;;;16.97
45034;BMP280;30771;47.988;-4.186;2022-09-09T08:10:39;100281.81;;;17.02
45034;BMP280;30771;47.988;-4.186;2022-09-09T08:13:04;100287.72;;;17.09
45034;BMP280;30771;47.988;-4.186;2022-09-09T08:15:30;100287.06;;;17.19
45034;BMP280;30771;47.988;-4.186;2022-09-09T08:17:55;100295.66;;;17.26
45034;BMP280;30771;47.988;-4.186;2022-09-09T08:20:21;100299.66;;;17.28
45034;BMP280;30771;47.988;-4.186;2022-09-09T08:22:46;100292.75;;;17.27
45034;BMP280;30771;47.988;-4.186;2022-09-09T08:25:11;100293.78;;;17.26
45034;BMP280;30771;47.988;-4.186;2022-09-09T08:27:36;100299.41;;;17.30
45034;BMP280;30771;47.988;-4.186;2022-09-09T08:30:01;100301.25;;;17.29
45034;BMP280;30771;47.988;-4.186;2022-09-09T08:32:27;100305.22;;;17.27
45034;BMP280;30771;47.988;-4.186;2022-09-09T08:34:52;100303.03;;;17.24
45034;BMP280;30771;47.988;-4.186;2022-09-09T08:37:17;100296.41;;;17.21
45034;BMP280;30771;47.988;-4.186;2022-09-09T08:39:42;100294.53;;;17.22
45034;BMP280;30771;47.988;-4.186;2022-09-09T08:42:17;100304.16;;;17.23
45034;BMP280;30771;47.988;-4.186;2022-09-09T08:52:01;100328.41;;;16.83
45034;BMP280;30771;47.988;-4.186;2022-09-09T08:54:28;100333.91;;;16.76
45034;BMP280;30771;47.988;-4.186;2022-09-09T08:56:55;100349.53;;;16.73
45034;BMP280;30771;47.988;-4.186;2022-09-09T08:59:21;100342.56;;;16.67
45034;BMP280;30771;47.988;-4.186;2022-09-09T09:06:54;100336.91;;;16.63
45034;BMP280;30771;47.988;-4.186;2022-09-09T09:11:50;100338.34;;;16.71
45034;BMP280;30771;47.988;-4.186;2022-09-09T09:19:15;100370.06;;;17.16
45034;BMP280;30771;47.988;-4.186;2022-09-09T09:21:42;100363.78;;;17.27
45034;BMP280;30771;47.988;-4.186;2022-09-09T09:24:13;100372.75;;;17.42
45034;BMP280;30771;47.988;-4.186;2022-09-09T09:26:41;100386.72;;;17.54
45034;BMP280;30771;47.988;-4.186;2022-09-09T09:29:10;100378.34;;;17.67
45034;BMP280;30771;47.988;-4.186;2022-09-09T09:31:36;100387.03;;;17.84
45034;BMP280;30771;47.988;-4.186;2022-09-09T09:34:01;100380.75;;;18.00
45034;BMP280;30771;47.988;-4.186;2022-09-09T09:36:34;100389.19;;;18.14
45034;BMP280;30771;47.988;-4.186;2022-09-09T09:39:00;100386.53;;;18.19
45034;BMP280;30771;47.988;-4.186;2022-09-09T09:41:32;100387.91;;;18.26
45034;BMP280;30771;47.988;-4.186;2022-09-09T09:43:59;100390.56;;;18.26
45034;BMP280;30771;47.988;-4.186;2022-09-09T09:46:25;100387.91;;;18.26
45034;BMP280;30771;47.988;-4.186;2022-09-09T09:49:00;100392.50;;;18.31
45034;BMP280;30771;47.988;-4.186;2022-09-09T09:51:26;100390.81;;;18.25
45034;BMP280;30771;47.988;-4.186;2022-09-09T09:53:53;100392.59;;;18.14
45034;BMP280;30771;47.988;-4.186;2022-09-09T09:56:25;100395.97;;;18.05
45034;BMP280;30771;47.988;-4.186;2022-09-09T09:58:51;100400.72;;;17.98
45034;BMP280;30771;47.988;-4.186;2022-09-09T10:01:27;100386.84;;;17.96
45034;BMP280;30771;47.988;-4.186;2022-09-09T10:03:54;100398.31;;;17.96
45034;BMP280;30771;47.988;-4.186;2022-09-09T10:06:32;100402.31;;;17.94
45034;BMP280;30771;47.988;-4.186;2022-09-09T10:08:57;100411.66;;;17.96
45034;BMP280;30771;47.988;-4.186;2022-09-09T10:11:41;100408.72;;;17.98
45034;BMP280;30771;47.988;-4.186;2022-09-09T10:19:19;100413.53;;;18.01
45034;BMP280;30771;47.988;-4.186;2022-09-09T10:24:48;100405.19;;;18.24
45034;BMP280;30771;47.988;-4.186;2022-09-09T10:35:09;100413.13;;;18.46
45034;BMP280;30771;47.988;-4.186;2022-09-09T10:37:38;100428.06;;;18.52
45034;BMP280;30771;47.988;-4.186;2022-09-09T10:42:37;100427.94;;;18.68
45034;BMP280;30771;47.988;-4.186;2022-09-09T10:48:00;100452.56;;;18.80
45034;BMP280;30771;47.988;-4.186;2022-09-09T10:55:39;100469.63;;;18.79
45034;BMP280;30771;47.988;-4.186;2022-09-09T10:58:08;100462.16;;;18.81
45034;BMP280;30771;47.988;-4.186;2022-09-09T11:03:03;100480.59;;;18.83
45034;BMP280;30771;47.988;-4.186;2022-09-09T11:08:14;100485.91;;;18.88
45034;BMP280;30771;47.988;-4.186;2022-09-09T11:10:42;100488.09;;;18.91
45034;BMP280;30771;47.988;-4.186;2022-09-09T11:13:10;100485.69;;;18.89
45034;BMP280;30771;47.988;-4.186;2022-09-09T11:15:40;100485.91;;;18.88
45034;BMP280;30771;47.988;-4.186;2022-09-09T11:18:07;100495.53;;;18.84
45034;BMP280;30771;47.988;-4.186;2022-09-09T11:20:36;100505.16;;;18.85
45034;BMP280;30771;47.988;-4.186;2022-09-09T11:23:45;100499.50;;;18.81
45034;BMP280;30771;47.988;-4.186;2022-09-09T11:25:51;100494.19;;;18.81
45034;BMP280;30771;47.988;-4.186;2022-09-09T11:36:26;100497.19;;;19.46
45034;BMP280;30771;47.988;-4.186;2022-09-09T11:38:47;100496.59;;;19.34
45034;BMP280;30771;47.988;-4.186;2022-09-09T11:41:13;100482.41;;;19.24
45034;BMP280;30771;47.988;-4.186;2022-09-09T11:43:40;100493.09;;;19.24
45034;BMP280;30771;47.988;-4.186;2022-09-09T11:46:06;100500.56;;;19.22
45034;BMP280;30771;47.988;-4.186;2022-09-09T11:48:32;100488.03;;;19.32
45034;BMP280;30771;47.988;-4.186;2022-09-09T11:50:59;100485.16;;;19.44
45034;BMP280;30771;47.988;-4.186;2022-09-09T11:53:25;100499.63;;;19.58
45034;BMP280;30771;47.988;-4.186;2022-09-09T11:56:02;100497.78;;;19.68
45034;BMP280;30771;47.988;-4.186;2022-09-09T11:58:27;100495.97;;;19.84
45034;BMP280;30771;47.988;-4.186;2022-09-09T12:00:53;100483.16;;;20.01
45034;BMP280;30771;47.988;-4.186;2022-09-09T12:08:36;100496.56;;;20.51
45034;BMP280;30771;47.988;-4.186;2022-09-09T12:11:02;100512.63;;;20.41
45034;BMP280;30771;47.988;-4.186;2022-09-09T12:13:27;100514.47;;;20.26
45034;BMP280;30771;47.988;-4.186;2022-09-09T12:15:53;100507.53;;;20.15
45034;BMP280;30771;47.988;-4.186;2022-09-09T12:18:22;100516.31;;;20.15
45034;BMP280;30771;47.988;-4.186;2022-09-09T12:20:51;100508.59;;;20.09
45034;BMP280;30771;47.988;-4.186;2022-09-09T12:23:25;100503.75;;;20.06
45034;BMP280;30771;47.988;-4.186;2022-09-09T12:28:22;100498.69;;;19.99
45034;BMP280;30771;47.988;-4.186;2022-09-09T12:33:35;100497.88;;;20.04
45034;BMP280;30771;47.988;-4.186;2022-09-09T12:36:00;100490.38;;;19.90
45034;BMP280;30771;47.988;-4.186;2022-09-09T12:38:36;100490.91;;;19.82
45034;BMP280;30771;47.988;-4.186;2022-09-09T12:41:02;100489.78;;;19.73
45034;BMP280;30771;47.988;-4.186;2022-09-09T12:43:28;100478.84;;;19.65
45034;BMP280;30771;47.988;-4.186;2022-09-09T12:45:54;100482.81;;;19.62
45034;BMP280;30771;47.988;-4.186;2022-09-09T12:48:21;100469.50;;;19.72
45034;BMP280;30771;47.988;-4.186;2022-09-09T12:50:49;100473.78;;;19.88
45034;BMP280;30771;47.988;-4.186;2022-09-09T12:55:59;100475.38;;;19.84
45034;BMP280;30771;47.988;-4.186;2022-09-09T12:58:25;100485.00;;;19.75
45034;BMP280;30771;47.988;-4.186;2022-09-09T13:00:51;100475.66;;;19.83
45034;BMP280;30771;47.988;-4.186;2022-09-09T13:03:17;100479.69;;;19.96
45034;BMP280;30771;47.988;-4.186;2022-09-09T13:05:43;100500.81;;;19.87
45034;BMP280;30771;47.988;-4.186;2022-09-09T13:08:09;100483.66;;;19.83
45034;BMP280;30771;47.988;-4.186;2022-09-09T13:10:45;100475.13;;;19.91
45034;BMP280;30771;47.988;-4.186;2022-09-09T13:13:14;100485.31;;;19.99
45034;BMP280;30771;47.988;-4.186;2022-09-09T13:15:40;100498.41;;;20.11
45034;BMP280;30771;47.988;-4.186;2022-09-09T13:18:12;100523.81;;;20.08
45034;BMP280;30771;47.988;-4.186;2022-09-09T13:20:38;100541.16;;;20.06
45034;BMP280;30771;47.988;-4.186;2022-09-09T13:23:03;100546.81;;;20.14
45034;BMP280;30771;47.988;-4.186;2022-09-09T13:25:28;100534.53;;;20.23
45034;BMP280;30771;47.988;-4.186;2022-09-09T13:27:58;100539.91;;;20.33
45034;BMP280;30771;47.988;-4.186;2022-09-09T13:33:02;100552.44;;;20.43
45034;BMP280;30771;47.988;-4.186;2022-09-09T13:35:27;100570.66;;;20.46
45034;BMP280;30771;47.988;-4.186;2022-09-09T13:37:52;100564.50;;;20.40
45034;BMP280;30771;47.988;-4.186;2022-09-09T13:40:19;100563.97;;;20.33
45034;BMP280;30771;47.988;-4.186;2022-09-09T13:42:45;100555.16;;;20.38
45034;BMP280;30771;47.988;-4.186;2022-09-09T13:45:20;100560.22;;;20.49
45034;BMP280;30771;47.988;-4.186;2022-09-09T13:47:45;100555.66;;;20.45
45034;BMP280;30771;47.988;-4.186;2022-09-09T13:50:24;100558.09;;;20.41
45034;BMP280;30771;47.988;-4.186;2022-09-09T13:52:50;100555.97;;;20.38
45034;BMP280;30771;47.988;-4.186;2022-09-09T13:55:17;100548.72;;;20.29
45034;BMP280;30771;47.988;-4.186;2022-09-09T13:58:01;100543.88;;;20.26
45034;BMP280;30771;47.988;-4.186;2022-09-09T14:00:31;100542.28;;;20.20
45034;BMP280;30771;47.988;-4.186;2022-09-09T14:02:56;100534.25;;;20.20
45034;BMP280;30771;47.988;-4.186;2022-09-09T14:05:21;100528.38;;;20.23
45034;BMP280;30771;47.988;-4.186;2022-09-09T14:07:47;100528.91;;;20.20
45034;BMP280;30771;47.988;-4.186;2022-09-09T14:10:12;100524.63;;;20.19
45034;BMP280;30771;47.988;-4.186;2022-09-09T14:12:37;100531.34;;;20.21
45034;BMP280;30771;47.988;-4.186;2022-09-09T14:15:03;100532.63;;;20.14
45034;BMP280;30771;47.988;-4.186;2022-09-09T14:17:28;100535.03;;;20.15
45034;BMP280;30771;47.988;-4.186;2022-09-09T14:19:53;100554.59;;;20.21
45034;BMP280;30771;47.988;-4.186;2022-09-09T14:22:19;100550.31;;;20.35
45034;BMP280;30771;47.988;-4.186;2022-09-09T14:24:44;100543.09;;;20.55
45034;BMP280;30771;47.988;-4.186;2022-09-09T14:27:09;100542.03;;;20.66
45034;BMP280;30771;47.988;-4.186;2022-09-09T14:29:34;100534.53;;;20.68
45034;BMP280;30771;47.988;-4.186;2022-09-09T14:31:59;100543.06;;;20.75
45034;BMP280;30771;47.988;-4.186;2022-09-09T14:34:24;100557.28;;;20.66
45034;BMP280;30771;47.988;-4.186;2022-09-09T14:36:50;100563.16;;;20.38
45034;BMP280;30771;47.988;-4.186;2022-09-09T14:39:15;100563.66;;;20.05
45034;BMP280;30771;47.988;-4.186;2022-09-09T14:41:40;100564.34;;;19.70
45034;BMP280;30771;47.988;-4.186;2022-09-09T14:44:05;100565.84;;;19.46
45034;BMP280;30771;47.988;-4.186;2022-09-09T14:46:30;100551.63;;;19.35
45034;BMP280;30771;47.988;-4.186;2022-09-09T14:48:55;100545.22;;;19.41
45034;BMP280;30771;47.988;-4.186;2022-09-09T14:51:22;100550.66;;;19.56
45034;BMP280;30771;47.988;-4.186;2022-09-09T14:53:48;100546.16;;;19.72
45034;BMP280;30771;47.988;-4.186;2022-09-09T14:56:16;100544.91;;;19.89
45034;BMP280;30771;47.988;-4.186;2022-09-09T14:58:42;100537.19;;;20.18
45034;BMP280;30771;47.988;-4.186;2022-09-09T15:01:11;100531.59;;;20.40
45034;BMP280;30771;47.988;-4.186;2022-09-09T15:03:40;100541.25;;;20.61
45034;BMP280;30771;47.988;-4.186;2022-09-09T15:06:10;100553.25;;;20.83
45034;BMP280;30771;47.988;-4.186;2022-09-09T15:08:36;100551.34;;;20.94
45034;BMP280;30771;47.988;-4.186;2022-09-09T15:11:02;100563.41;;;20.81
45034;BMP280;30771;47.988;-4.186;2022-09-09T15:13:27;100572.53;;;20.60
45034;BMP280;30771;47.988;-4.186;2022-09-09T15:15:52;100558.88;;;20.57
45034;BMP280;30771;47.988;-4.186;2022-09-09T15:18:17;100562.63;;;20.51
45034;BMP280;30771;47.988;-4.186;2022-09-09T15:20:46;100554.63;;;20.41
45034;BMP280;30771;47.988;-4.186;2022-09-09T15:23:11;100548.44;;;20.40
45034;BMP280;30771;47.988;-4.186;2022-09-09T15:25:37;100546.59;;;20.46
45034;BMP280;30771;47.988;-4.186;2022-09-09T15:28:02;100550.84;;;20.47
45034;BMP280;30771;47.988;-4.186;2022-09-09T15:30:27;100550.59;;;20.38
45034;BMP280;30771;47.988;-4.186;2022-09-09T15:32:52;100544.97;;;20.40
45034;BMP280;30771;47.988;-4.186;2022-09-09T15:35:17;100539.88;;;20.43
45034;BMP280;30771;47.988;-4.186;2022-09-09T15:37:43;100535.06;;;20.40
45034;BMP280;30771;47.988;-4.186;2022-09-09T15:40:08;100534.00;;;20.16
45034;BMP280;30771;47.988;-4.186;2022-09-09T15:42:33;100534.50;;;20.03
45034;BMP280;30771;47.988;-4.186;2022-09-09T15:44:58;100527.53;;;19.97
45034;BMP280;30771;47.988;-4.186;2022-09-09T15:47:23;100520.31;;;19.88
45034;BMP280;30771;47.988;-4.186;2022-09-09T15:49:49;100524.31;;;19.85
45034;BMP280;30771;47.988;-4.186;2022-09-09T15:52:14;100523.00;;;19.88
45034;BMP280;30771;47.988;-4.186;2022-09-09T15:54:39;100519.75;;;19.90
45034;BMP280;30771;47.988;-4.186;2022-09-09T15:57:05;100529.41;;;19.97
45034;BMP280;30771;47.988;-4.186;2022-09-09T15:59:30;100527.53;;;19.87
45034;BMP280;30771;47.988;-4.186;2022-09-09T16:01:56;100524.53;;;19.73
45034;BMP280;30771;47.988;-4.186;2022-09-09T16:04:22;100525.84;;;19.66
45034;BMP280;30771;47.988;-4.186;2022-09-09T16:06:47;100520.47;;;19.61
45034;BMP280;30771;47.988;-4.186;2022-09-09T16:09:12;100522.09;;;19.67
45034;BMP280;30771;47.988;-4.186;2022-09-09T16:11:38;100522.41;;;19.75
45034;BMP280;30771;47.988;-4.186;2022-09-09T16:14:03;100519.22;;;19.78
45034;BMP280;30771;47.988;-4.186;2022-09-09T16:16:29;100523.78;;;19.93
45034;BMP280;30771;47.988;-4.186;2022-09-09T16:18:55;100514.44;;;20.06
45034;BMP280;30771;47.988;-4.186;2022-09-09T16:23:46;100512.53;;;19.86
45034;BMP280;30771;47.988;-4.186;2022-09-09T16:26:13;100514.66;;;19.74
45034;BMP280;30771;47.988;-4.186;2022-09-09T16:28:38;100511.72;;;19.65
45034;BMP280;30771;47.988;-4.186;2022-09-09T16:31:04;100518.09;;;19.64
45034;BMP280;30771;47.988;-4.186;2022-09-09T16:33:30;100507.94;;;19.61
45034;BMP280;30771;47.988;-4.186;2022-09-09T16:35:55;100514.38;;;19.65
45034;BMP280;30771;47.988;-4.186;2022-09-09T16:38:20;100511.16;;;19.73
45034;BMP280;30771;47.988;-4.186;2022-09-09T16:40:45;100514.38;;;19.80
45034;BMP280;30771;47.988;-4.186;2022-09-09T16:43:10;100525.66;;;19.88
45034;BMP280;30771;47.988;-4.186;2022-09-09T16:45:40;100526.19;;;19.89
45034;BMP280;30771;47.988;-4.186;2022-09-09T16:48:06;100539.28;;;19.86
45034;BMP280;30771;47.988;-4.186;2022-09-09T16:50:31;100534.97;;;19.80
45034;BMP280;30771;47.988;-4.186;2022-09-09T16:52:56;100546.19;;;19.77
45034;BMP280;30771;47.988;-4.186;2022-09-09T16:55:21;100550.72;;;19.76
45034;BMP280;30771;47.988;-4.186;2022-09-09T16:57:46;100559.56;;;19.77
45034;BMP280;30771;47.988;-4.186;2022-09-09T17:00:12;100563.03;;;19.72
45034;BMP280;30771;47.988;-4.186;2022-09-09T17:02:37;100569.91;;;19.63
45034;BMP280;30771;47.988;-4.186;2022-09-09T17:05:02;100583.50;;;19.52
45034;BMP280;30771;47.988;-4.186;2022-09-09T17:07:27;100587.69;;;19.38
45034;BMP280;30771;47.988;-4.186;2022-09-09T17:09:52;100583.34;;;19.27
45034;BMP280;30771;47.988;-4.186;2022-09-09T17:12:18;100586.25;;;19.20
45034;BMP280;30771;47.988;-4.186;2022-09-09T17:14:43;100589.16;;;19.14
45034;BMP280;30771;47.988;-4.186;2022-09-09T17:17:08;100596.31;;;19.08
45034;BMP280;30771;47.988;-4.186;2022-09-09T17:19:33;100586.91;;;19.01
45034;BMP280;30771;47.988;-4.186;2022-09-09T17:21:59;100586.63;;;18.97
45034;BMP280;30771;47.988;-4.186;2022-09-09T17:24:24;100585.03;;;18.96
45034;BMP280;30771;47.988;-4.186;2022-09-09T17:26:50;100585.34;;;19.00
45034;BMP280;30771;47.988;-4.186;2022-09-09T17:29:15;100581.56;;;19.01
45034;BMP280;30771;47.988;-4.186;2022-09-09T17:31:40;100582.38;;;18.96
45034;BMP280;30771;47.988;-4.186;2022-09-09T17:34:05;100581.81;;;18.94
45034;BMP280;30771;47.988;-4.186;2022-09-09T17:36:32;100588.69;;;18.90
45034;BMP280;30771;47.988;-4.186;2022-09-09T17:38:57;100586.28;;;18.89
45034;BMP280;30771;47.988;-4.186;2022-09-09T17:41:24;100587.31;;;18.88
45034;BMP280;30771;47.988;-4.186;2022-09-09T17:43:50;100591.31;;;18.85
45034;BMP280;30771;47.988;-4.186;2022-09-09T17:46:16;100590.25;;;18.81
45034;BMP280;30771;47.988;-4.186;2022-09-09T17:48:42;100593.13;;;18.75
45034;BMP280;30771;47.988;-4.186;2022-09-09T17:51:12;100592.28;;;18.69
45034;BMP280;30771;47.988;-4.186;2022-09-09T17:53:39;100591.94;;;18.66
45034;BMP280;30771;47.988;-4.186;2022-09-09T17:56:05;100590.91;;;18.67
45034;BMP280;30771;47.988;-4.186;2022-09-09T17:58:31;100594.19;;;18.74
45034;BMP280;30771;47.988;-4.186;2022-09-09T18:01:00;100600.09;;;18.81
45034;BMP280;30771;47.988;-4.186;2022-09-09T18:03:25;100592.13;;;18.86
45034;BMP280;30771;47.988;-4.186;2022-09-09T18:05:51;100592.53;;;18.99
45034;BMP280;30771;47.988;-4.186;2022-09-09T18:08:16;100585.16;;;19.16
45034;BMP280;30771;47.988;-4.186;2022-09-09T18:10:41;100586.84;;;19.27
45034;BMP280;30771;47.988;-4.186;2022-09-09T18:13:06;100587.91;;;19.26
45034;BMP280;30771;47.988;-4.186;2022-09-09T18:15:35;100591.78;;;19.09
45034;BMP280;30771;47.988;-4.186;2022-09-09T18:18:00;100594.56;;;18.87
45034;BMP280;30771;47.988;-4.186;2022-09-09T18:20:25;100588.25;;;18.67
45034;BMP280;30771;47.988;-4.186;2022-09-09T18:22:50;100589.66;;;18.48
45034;BMP280;30771;47.988;-4.186;2022-09-09T18:25:15;100591.69;;;18.36
45034;BMP280;30771;47.988;-4.186;2022-09-09T18:27:41;100590.75;;;18.25
45034;BMP280;30771;47.988;-4.186;2022-09-09T18:30:06;100588.47;;;18.12
45034;BMP280;30771;47.988;-4.186;2022-09-09T18:32:31;100593.72;;;18.02
45034;BMP280;30771;47.988;-4.186;2022-09-09T18:34:56;100590.09;;;17.91
45034;BMP280;30771;47.988;-4.186;2022-09-09T18:37:22;100592.63;;;17.81
45034;BMP280;30771;47.988;-4.186;2022-09-09T18:39:47;100588.22;;;17.70
45034;BMP280;30771;47.988;-4.186;2022-09-09T18:42:12;100591.06;;;17.64
45034;BMP280;30771;47.988;-4.186;2022-09-09T18:44:37;100599.50;;;17.56
45034;BMP280;30771;47.988;-4.186;2022-09-09T18:47:02;100598.84;;;17.49
45034;BMP280;30771;47.988;-4.186;2022-09-09T18:49:28;100598.47;;;17.40
45034;BMP280;30771;47.988;-4.186;2022-09-09T18:51:53;100597.06;;;17.33
45034;BMP280;30771;47.988;-4.186;2022-09-09T18:56:44;100601.84;;;17.19
45034;BMP280;30771;47.988;-4.186;2022-09-09T18:59:10;100602.06;;;17.13
45034;BMP280;30771;47.988;-4.186;2022-09-09T19:01:35;100601.41;;;17.06
45034;BMP280;30771;47.988;-4.186;2022-09-09T19:04:01;100601.56;;;16.99
45034;BMP280;30771;47.988;-4.186;2022-09-09T19:06:27;100599.88;;;16.93
45034;BMP280;30771;47.988;-4.186;2022-09-09T19:08:53;100599.22;;;16.86
45034;BMP280;30771;47.988;-4.186;2022-09-09T19:11:19;100601.22;;;16.79
45034;BMP280;30771;47.988;-4.186;2022-09-09T19:13:54;100610.16;;;16.73
45034;BMP280;30771;47.988;-4.186;2022-09-09T19:16:20;100608.47;;;16.67
45034;BMP280;30771;47.988;-4.186;2022-09-09T19:18:45;100602.00;;;16.63
45034;BMP280;30771;47.988;-4.186;2022-09-09T19:21:11;100605.63;;;16.57
45034;BMP280;30771;47.988;-4.186;2022-09-09T19:23:37;100611.38;;;16.54
45034;BMP280;30771;47.988;-4.186;2022-09-09T19:26:02;100620.31;;;16.48
45034;BMP280;30771;47.988;-4.186;2022-09-09T19:28:27;100619.97;;;16.44
45034;BMP280;30771;47.988;-4.186;2022-09-09T19:30:53;100623.94;;;16.42
45034;BMP280;30771;47.988;-4.186;2022-09-09T19:33:18;100621.72;;;16.39
45034;BMP280;30771;47.988;-4.186;2022-09-09T19:35:43;100625.69;;;16.36
45034;BMP280;30771;47.988;-4.186;2022-09-09T19:38:08;100633.06;;;16.34
45034;BMP280;30771;47.988;-4.186;2022-09-09T19:40:34;100634.38;;;16.32
45034;BMP280;30771;47.988;-4.186;2022-09-09T19:42:59;100627.66;;;16.29
45034;BMP280;30771;47.988;-4.186;2022-09-09T19:45:24;100634.25;;;16.27
45034;BMP280;30771;47.988;-4.186;2022-09-09T19:47:50;100631.25;;;16.23
45034;BMP280;30771;47.988;-4.186;2022-09-09T19:50:15;100638.88;;;16.20
45034;BMP280;30771;47.988;-4.186;2022-09-09T19:52:40;100634.84;;;16.17
45034;BMP280;30771;47.988;-4.186;2022-09-09T19:55:05;100639.81;;;16.14
45034;BMP280;30771;47.988;-4.186;2022-09-09T19:57:30;100640.31;;;16.11
45034;BMP280;30771;47.988;-4.186;2022-09-09T19:59:56;100631.97;;;16.07
45034;BMP280;30771;47.988;-4.186;2022-09-09T20:02:21;100635.09;;;16.04
45034;BMP280;30771;47.988;-4.186;2022-09-09T20:04:46;100633.69;;;16.02
45034;BMP280;30771;47.988;-4.186;2022-09-09T20:07:11;100643.78;;;16.00
45034;BMP280;30771;47.988;-4.186;2022-09-09T20:09:36;100647.69;;;15.97
45034;BMP280;30771;47.988;-4.186;2022-09-09T20:12:02;100658.00;;;15.94
45034;BMP280;30771;47.988;-4.186;2022-09-09T20:14:27;100650.47;;;15.91
45034;BMP280;30771;47.988;-4.186;2022-09-09T20:16:52;100651.75;;;15.88
45034;BMP280;30771;47.988;-4.186;2022-09-09T20:19:17;100650.13;;;15.87
45034;BMP280;30771;47.988;-4.186;2022-09-09T20:21:43;100662.03;;;15.85
45034;BMP280;30771;47.988;-4.186;2022-09-09T20:24:10;100657.19;;;15.82
45034;BMP280;30771;47.988;-4.186;2022-09-09T20:26:35;100655.56;;;15.81
45034;BMP280;30771;47.988;-4.186;2022-09-09T20:29:02;100653.97;;;15.80
45034;BMP280;30771;47.988;-4.186;2022-09-09T20:31:28;100661.34;;;15.78
45034;BMP280;30771;47.988;-4.186;2022-09-09T20:33:54;100666.06;;;15.76
45034;BMP280;30771;47.988;-4.186;2022-09-09T20:36:23;100661.22;;;15.73
45034;BMP280;30771;47.988;-4.186;2022-09-09T20:38:51;100662.47;;;15.70
45034;BMP280;30771;47.988;-4.186;2022-09-09T20:41:18;100661.94;;;15.68
45034;BMP280;30771;47.988;-4.186;2022-09-09T20:46:11;100659.16;;;15.63
45034;BMP280;30771;47.988;-4.186;2022-09-09T20:48:36;100666.31;;;15.63
45034;BMP280;30771;47.988;-4.186;2022-09-09T20:51:04;100661.44;;;15.59
45034;BMP280;30771;47.988;-4.186;2022-09-09T20:53:30;100663.75;;;15.56
45034;BMP280;30771;47.988;-4.186;2022-09-09T20:55:59;100677.25;;;15.54
45034;BMP280;30771;47.988;-4.186;2022-09-09T20:58:24;100669.75;;;15.51
45034;BMP280;30771;47.988;-4.186;2022-09-09T21:00:50;100669.19;;;15.49
45034;BMP280;30771;47.988;-4.186;2022-09-09T21:03:15;100664.06;;;15.48
45034;BMP280;30771;47.988;-4.186;2022-09-09T21:05:40;100668.81;;;15.46